Sarah Lissa — V7NJ3 — position and weather

sailwx.info

Track history (hours):
 
Tides and Currents Weather Stations Pressure Air Temp Water Temp Dewpoint Dewpoint Depression Visibility Wind Speed Wind Dir Waves Ship Positions

Sarah Lissa

Last reported at 2018-Mar-23 21:26 UTC. Time now 2018-Apr-21 07:56 UTC.
Position N 49°06' W 123°47'.
Warning: this ship's position is 28 days out of date.

Length 30 m; draft 2.4 m.

Type: Pleasure craft. MMSI: 538071085.

Date/timePositionNaut miles runAvg speedWind from/ knotsBaromVisibWave heightAir tempDewpointWater temp
2018-Mar-23 21:26N 49°06' W 123°47'3 6.4
2018-Mar-23 20:55N 49°03' W 123°45'3 6.6
2018-Mar-23 20:26N 49°00' W 123°43'4 9.7
2018-Mar-23 20:00N 48°56' W 123°41'5 9.8
2018-Mar-23 19:30N 48°52' W 123°36'5 9.9
2018-Mar-23 19:01N 48°48' W 123°33'4 7.8
2018-Mar-23 18:30N 48°44' W 123°32'5 9.2
2018-Mar-23 18:01N 48°43' W 123°26'4 8.6
2018-Mar-23 17:30N 48°40' W 123°20'5 9.3
2018-Mar-23 17:00N 48°37' W 123°15'510.2
2018-Mar-23 16:30N 48°32' W 123°14'5 9.7
2018-Mar-23 16:00N 48°27' W 123°12'2 3.4
2018-Mar-23 15:30N 48°26' W 123°13'5 9.3
2018-Mar-23 15:00N 48°23' W 123°19'3 5.9
2018-Mar-23 14:30N 48°25' W 123°23'0 0.5
2018-Mar-23 13:52N 48°25' W 123°22'0 0.0
2018-Mar-23 13:30N 48°25' W 123°22'0 0.0
2018-Mar-23 12:57N 48°25' W 123°22'0 0.0
2018-Mar-23 12:24N 48°25' W 123°22'0 0.0
2018-Mar-23 11:49N 48°25' W 123°22'0 0.0
2018-Mar-23 11:28N 48°25' W 123°22'0 0.0
2018-Mar-23 10:59N 48°25' W 123°22'0 0.0
2018-Mar-23 10:24N 48°25' W 123°22'0 0.0
2018-Mar-23 10:00N 48°25' W 123°22'0 0.0
2018-Mar-23 09:28N 48°25' W 123°22'0 0.0
2018-Mar-23 08:56N 48°25' W 123°22'0 0.0
2018-Mar-23 08:29N 48°25' W 123°22'0 0.0
2018-Mar-23 08:00N 48°25' W 123°22'0 0.0
2018-Mar-23 07:29N 48°25' W 123°22'0 0.0
2018-Mar-23 06:59N 48°25' W 123°22'0 0.0
2018-Mar-23 06:29N 48°25' W 123°22'0 0.0
2018-Mar-23 06:00N 48°25' W 123°22'0 0.0
2018-Mar-23 05:25N 48°25' W 123°22'0 0.0
2018-Mar-23 04:56N 48°25' W 123°22'0 0.0
2018-Mar-23 04:29N 48°25' W 123°22'0 0.0
2018-Mar-23 03:58N 48°25' W 123°22'0 0.0
2018-Mar-23 03:29N 48°25' W 123°22'0 0.0
2018-Mar-23 02:59N 48°25' W 123°22'0 0.0
2018-Mar-23 02:25N 48°25' W 123°22'0 0.0
2018-Mar-23 01:58N 48°25' W 123°22'0 0.0
2018-Mar-23 01:29N 48°25' W 123°22'0 0.0
2018-Mar-23 00:54N 48°25' W 123°22'0 0.0
2018-Mar-23 00:14N 48°25' W 123°22'0 0.0
2018-Mar-22 23:52N 48°25' W 123°22'0 0.0
2018-Mar-22 23:30N 48°25' W 123°22'0 0.0
2018-Mar-22 22:58N 48°25' W 123°22'0 0.0
2018-Mar-22 22:28N 48°25' W 123°22'0 0.0
2018-Mar-22 22:00N 48°25' W 123°22'0 0.0
2018-Mar-22 21:28N 48°25' W 123°22'0 0.0
2018-Mar-22 20:58N 48°25' W 123°22'0 0.0
2018-Mar-22 20:29N 48°25' W 123°22'0 0.0
2018-Mar-22 19:59N 48°25' W 123°22'0 0.0
2018-Mar-22 19:28N 48°25' W 123°22'0 0.0
2018-Mar-22 18:59N 48°25' W 123°22'0 0.0
2018-Mar-22 18:29N 48°25' W 123°22'0 0.0
2018-Mar-22 17:58N 48°25' W 123°22'0 0.0
2018-Mar-22 17:21N 48°25' W 123°22'0 0.0
2018-Mar-22 16:54N 48°25' W 123°22'0 0.0
2018-Mar-22 16:24N 48°25' W 123°22'0 0.0
2018-Mar-22 16:00N 48°25' W 123°22'0 0.0
2018-Mar-22 15:30N 48°25' W 123°22'0 0.0
2018-Mar-22 15:00N 48°25' W 123°22'0 0.0
2018-Mar-22 14:26N 48°25' W 123°22'0 0.0
2018-Mar-22 13:50N 48°25' W 123°22'0 0.0
2018-Mar-22 13:28N 48°25' W 123°22'0 0.0
2018-Mar-22 12:57N 48°25' W 123°22'0 0.0
2018-Mar-22 12:27N 48°25' W 123°22'0 0.0
2018-Mar-22 11:59N 48°25' W 123°22'0 0.0
2018-Mar-22 11:29N 48°25' W 123°22'0 0.0
2018-Mar-22 10:59N 48°25' W 123°22'0 0.0
2018-Mar-22 10:29N 48°25' W 123°22'0 0.0
2018-Mar-22 10:00N 48°25' W 123°22'0 0.0
2018-Mar-22 09:28N 48°25' W 123°22'0 0.0
2018-Mar-22 08:59N 48°25' W 123°22'0 0.0
2018-Mar-22 08:28N 48°25' W 123°22'0 0.0
2018-Mar-22 07:58N 48°25' W 123°22'0 0.0
2018-Mar-22 07:30N 48°25' W 123°22'0 0.0
2018-Mar-22 07:00N 48°25' W 123°22'0 0.0
2018-Mar-22 06:27N 48°25' W 123°22'0 0.0
2018-Mar-22 06:00N 48°25' W 123°22'0 0.0
2018-Mar-22 05:29N 48°25' W 123°22'0 0.0
2018-Mar-22 04:59N 48°25' W 123°22'0 0.0
2018-Mar-22 04:27N 48°25' W 123°22'0 0.0
2018-Mar-22 03:59N 48°25' W 123°22'0 0.0
2018-Mar-22 03:28N 48°25' W 123°22'0 0.0
2018-Mar-22 02:58N 48°25' W 123°22'0 0.0
2018-Mar-22 02:28N 48°25' W 123°22'0 0.0
2018-Mar-22 01:58N 48°25' W 123°22'0 0.0
2018-Mar-22 01:30N 48°25' W 123°22'0 0.0
2018-Mar-22 00:56N 48°25' W 123°22'0 0.0
2018-Mar-22 00:30N 48°25' W 123°22'0 0.0
2018-Mar-21 23:58N 48°25' W 123°22'0 0.0
2018-Mar-21 23:23N 48°25' W 123°22'0 0.0
2018-Mar-21 23:00N 48°25' W 123°22'0 0.0
2018-Mar-21 22:27N 48°25' W 123°22'0 0.0
2018-Mar-21 22:00N 48°25' W 123°22'0 0.0
2018-Mar-21 21:29N 48°25' W 123°22'0 0.0
2018-Mar-21 20:52N 48°25' W 123°22'0 0.0
2018-Mar-21 20:30N 48°25' W 123°22'0 0.0
2018-Mar-21 19:58N 48°25' W 123°22'0 0.0
2018-Mar-21 19:27N 48°25' W 123°22'0 0.0
2018-Mar-21 18:57N 48°25' W 123°22'0 0.0
2018-Mar-21 18:30N 48°25' W 123°22'0 0.0
2018-Mar-21 17:58N 48°25' W 123°22'0 0.0
2018-Mar-21 17:30N 48°25' W 123°22'0 0.0
2018-Mar-21 16:59N 48°25' W 123°22'0 0.0
2018-Mar-21 16:29N 48°25' W 123°22'0 0.0
2018-Mar-21 16:00N 48°25' W 123°22'0 0.0
2018-Mar-21 15:28N 48°25' W 123°22'0 0.0
2018-Mar-21 14:59N 48°25' W 123°22'0 0.0
2018-Mar-21 14:23N 48°25' W 123°22'0 0.0
2018-Mar-21 14:00N 48°25' W 123°22'0 0.0
2018-Mar-21 13:28N 48°25' W 123°22'0 0.0
2018-Mar-21 12:58N 48°25' W 123°22'0 0.0
2018-Mar-21 12:29N 48°25' W 123°22'0 0.0
2018-Mar-21 11:59N 48°25' W 123°22'0 0.0
2018-Mar-21 11:26N 48°25' W 123°22'0 0.0
2018-Mar-21 10:58N 48°25' W 123°22'0 0.0
2018-Mar-21 10:26N 48°25' W 123°22'0 0.0
2018-Mar-21 09:58N 48°25' W 123°22'0 0.0
2018-Mar-21 09:29N 48°25' W 123°22'0 0.0
2018-Mar-21 08:53N 48°25' W 123°22'0 0.0
2018-Mar-21 08:24N 48°25' W 123°22'0 0.0
2018-Mar-21 08:00N 48°25' W 123°22'0 0.0
2018-Mar-21 07:28N 48°25' W 123°22'0 0.0
2018-Mar-21 06:58N 48°25' W 123°22'0 0.0
2018-Mar-21 06:23N 48°25' W 123°22'0 0.0
2018-Mar-21 06:00N 48°25' W 123°22'0 0.0
2018-Mar-21 05:30N 48°25' W 123°22'0 0.0
2018-Mar-21 05:00N 48°25' W 123°22'0 0.0
2018-Mar-21 04:30N 48°25' W 123°22'0 0.0
2018-Mar-21 04:00N 48°25' W 123°22'0 0.0
2018-Mar-21 03:30N 48°25' W 123°22'0 0.0
2018-Mar-21 02:58N 48°25' W 123°22'0 0.0
2018-Mar-21 02:30N 48°25' W 123°22'0 0.0
2018-Mar-21 01:58N 48°25' W 123°22'0 0.0
2018-Mar-21 01:25N 48°25' W 123°22'0 0.0
2018-Mar-21 00:59N 48°25' W 123°22'0 0.0
2018-Mar-21 00:30N 48°25' W 123°22'0 0.0
2018-Mar-20 23:59N 48°25' W 123°22'0 0.0
2018-Mar-20 23:27N 48°25' W 123°22'0 0.0
2018-Mar-20 22:56N 48°25' W 123°22'0 0.0
2018-Mar-20 22:26N 48°25' W 123°22'0 0.0
2018-Mar-20 21:58N 48°25' W 123°22'0 0.0
2018-Mar-20 21:28N 48°25' W 123°22'0 0.0
2018-Mar-20 20:55N 48°25' W 123°22'0 0.0
2018-Mar-20 20:30N 48°25' W 123°22'0 0.0
2018-Mar-20 20:00N 48°25' W 123°22'0 0.0
2018-Mar-20 19:28N 48°25' W 123°22'0 0.0
2018-Mar-20 18:58N 48°25' W 123°22'0 0.0
2018-Mar-20 18:30N 48°25' W 123°22'0 0.0
2018-Mar-20 17:59N 48°25' W 123°22'0 0.0
2018-Mar-20 17:30N 48°25' W 123°22'0 0.0
2018-Mar-20 16:53N 48°25' W 123°22'0 0.0
2018-Mar-20 16:28N 48°25' W 123°22'0 0.0
2018-Mar-20 15:58N 48°25' W 123°22'0 0.0
2018-Mar-20 15:29N 48°25' W 123°22'0 0.0
2018-Mar-20 15:00N 48°25' W 123°22'0 0.0
2018-Mar-20 14:30N 48°25' W 123°22'0 0.0
2018-Mar-20 13:58N 48°25' W 123°22'0 0.0
2018-Mar-20 13:30N 48°25' W 123°22'0 0.0
2018-Mar-20 13:00N 48°25' W 123°22'0 0.0
2018-Mar-20 12:30N 48°25' W 123°22'0 0.0
2018-Mar-20 11:59N 48°25' W 123°22'0 0.0
2018-Mar-20 11:30N 48°25' W 123°22'0 0.0
2018-Mar-20 10:59N 48°25' W 123°22'0 0.0
2018-Mar-20 10:24N 48°25' W 123°22'0 0.0
2018-Mar-20 09:58N 48°25' W 123°22'0 0.0
2018-Mar-20 09:29N 48°25' W 123°22'0 0.0
2018-Mar-20 08:54N 48°25' W 123°22'0 0.0
2018-Mar-20 08:30N 48°25' W 123°22'0 0.0
2018-Mar-20 08:00N 48°25' W 123°22'0 0.0
2018-Mar-20 07:26N 48°25' W 123°22'0 0.0
2018-Mar-20 06:58N 48°25' W 123°22'0 0.0
2018-Mar-20 06:29N 48°25' W 123°22'0 0.0
2018-Mar-20 05:59N 48°25' W 123°22'0 0.0
2018-Mar-20 05:30N 48°25' W 123°22'0 0.0
2018-Mar-20 04:58N 48°25' W 123°22'0 0.0
2018-Mar-20 04:28N 48°25' W 123°22'0 0.0
2018-Mar-20 03:58N 48°25' W 123°22'0 0.0
2018-Mar-20 03:30N 48°25' W 123°22'0 0.0
2018-Mar-20 02:55N 48°25' W 123°22'0 0.0
2018-Mar-20 02:30N 48°25' W 123°22'0 0.0
2018-Mar-20 01:58N 48°25' W 123°22'0 0.0
2018-Mar-20 01:28N 48°25' W 123°22'0 0.0
2018-Mar-20 00:57N 48°25' W 123°22'0 0.0
2018-Mar-20 00:30N 48°25' W 123°22'0 0.0
2018-Mar-19 23:58N 48°25' W 123°22'0 0.0
2018-Mar-19 23:28N 48°25' W 123°22'0 0.0
2018-Mar-19 22:58N 48°25' W 123°22'0 1.0
2018-Mar-19 22:30N 48°26' W 123°23'0 0.3
2018-Mar-19 21:56N 48°26' W 123°23'0 0.0
2018-Mar-19 21:11N 48°26' W 123°23'0 0.0
2018-Mar-19 20:55N 48°26' W 123°23'0 0.0
2018-Mar-19 20:29N 48°26' W 123°23'0 0.0
2018-Mar-19 19:58N 48°26' W 123°23'0 0.0
2018-Mar-19 19:28N 48°26' W 123°23'0 0.0
2018-Mar-19 18:54N 48°26' W 123°23'0 0.0
2018-Mar-19 18:29N 48°26' W 123°23'0 0.0
2018-Mar-19 18:00N 48°26' W 123°23'0 0.0
2018-Mar-19 17:30N 48°26' W 123°23'0 0.0
2018-Mar-19 16:58N 48°26' W 123°23'0 0.0
2018-Mar-19 16:30N 48°26' W 123°23'0 0.0
2018-Mar-19 16:00N 48°26' W 123°23'0 0.0
2018-Mar-19 15:30N 48°26' W 123°23'0 0.0
2018-Mar-19 14:55N 48°26' W 123°23'0 0.0
2018-Mar-19 14:28N 48°26' W 123°23'0 0.0
2018-Mar-19 13:59N 48°26' W 123°23'0 0.0
2018-Mar-19 13:27N 48°26' W 123°23'0 0.0
2018-Mar-19 12:52N 48°26' W 123°23'0 0.0
2018-Mar-19 12:29N 48°26' W 123°23'0 0.0
2018-Mar-19 11:58N 48°26' W 123°23'0 0.0
2018-Mar-19 11:29N 48°26' W 123°23'0 0.0
2018-Mar-19 10:56N 48°26' W 123°23'0 0.0
2018-Mar-19 10:30N 48°26' W 123°23'0 0.0
2018-Mar-19 10:00N 48°26' W 123°23'0 0.0
2018-Mar-19 09:29N 48°26' W 123°23'0 0.0
2018-Mar-19 09:00N 48°26' W 123°23'0 0.0
2018-Mar-19 08:28N 48°26' W 123°23'0 0.0
2018-Mar-19 07:59N 48°26' W 123°23'0 0.0
2018-Mar-19 07:26N 48°26' W 123°23'0 0.0
2018-Mar-19 06:56N 48°26' W 123°23'0 0.0
2018-Mar-19 06:29N 48°26' W 123°23'0 0.0
2018-Mar-19 05:57N 48°26' W 123°23'0 0.0
2018-Mar-19 05:27N 48°26' W 123°23'0 0.0
2018-Mar-19 04:57N 48°26' W 123°23'0 0.0
2018-Mar-19 04:23N 48°26' W 123°23'0 0.0
2018-Mar-19 03:59N 48°26' W 123°23'0 0.0
2018-Mar-19 03:30N 48°26' W 123°23'0 0.0
2018-Mar-19 02:59N 48°26' W 123°23'0 0.0
2018-Mar-19 02:27N 48°26' W 123°23'0 0.0
2018-Mar-19 02:00N 48°26' W 123°23'0 0.0
2018-Mar-19 01:28N 48°26' W 123°23'0 0.0
2018-Mar-19 00:54N 48°26' W 123°23'0 0.0
2018-Mar-19 00:30N 48°26' W 123°23'0 0.0
2018-Mar-19 00:00N 48°26' W 123°23'0 0.0
2018-Mar-18 23:26N 48°26' W 123°23'0 0.0
2018-Mar-18 22:56N 48°26' W 123°23'0 0.0
2018-Mar-18 22:29N 48°26' W 123°23'0 0.0
2018-Mar-18 22:00N 48°26' W 123°23'0 0.0
2018-Mar-18 21:29N 48°26' W 123°23'0 0.0
2018-Mar-18 21:00N 48°26' W 123°23'0 0.0
2018-Mar-18 20:27N 48°26' W 123°23'0 0.0
2018-Mar-18 19:59N 48°26' W 123°23'0 0.0
2018-Mar-18 19:28N 48°26' W 123°23'0 0.0
2018-Mar-18 18:58N 48°26' W 123°23'0 0.0
2018-Mar-18 18:30N 48°26' W 123°23'0 0.0
2018-Mar-18 18:00N 48°26' W 123°23'0 0.0
2018-Mar-18 17:30N 48°26' W 123°23'0 0.0
2018-Mar-18 16:59N 48°26' W 123°23'0 0.0
2018-Mar-18 16:30N 48°26' W 123°23'0 0.0
2018-Mar-18 15:58N 48°26' W 123°23'0 0.0
2018-Mar-18 15:28N 48°26' W 123°23'0 0.0
2018-Mar-18 15:00N 48°26' W 123°23'0 0.0
2018-Mar-18 14:29N 48°26' W 123°23'0 0.0
2018-Mar-18 13:58N 48°26' W 123°23'0 0.0
2018-Mar-18 13:30N 48°26' W 123°23'0 0.0
2018-Mar-18 12:58N 48°26' W 123°23'0 0.0
2018-Mar-18 12:24N 48°26' W 123°23'0 0.0
2018-Mar-18 11:59N 48°26' W 123°23'0 0.0
2018-Mar-18 11:29N 48°26' W 123°23'0 0.0
2018-Mar-18 10:55N 48°26' W 123°23'0 0.0
2018-Mar-18 10:28N 48°26' W 123°23'0 0.0
2018-Mar-18 10:00N 48°26' W 123°23'0 0.0
2018-Mar-18 09:30N 48°26' W 123°23'0 0.0
2018-Mar-18 09:00N 48°26' W 123°23'0 0.0
2018-Mar-18 08:30N 48°26' W 123°23'0 0.0
2018-Mar-18 07:59N 48°26' W 123°23'0 0.0
2018-Mar-18 07:26N 48°26' W 123°23'0 0.0
2018-Mar-18 06:53N 48°26' W 123°23'0 0.0
2018-Mar-18 06:29N 48°26' W 123°23'0 0.0
2018-Mar-18 05:52N 48°26' W 123°23'0 0.0
2018-Mar-18 05:29N 48°26' W 123°23'0 0.0
2018-Mar-18 04:59N 48°26' W 123°23'0 0.0
2018-Mar-18 04:24N 48°26' W 123°23'0 0.0
2018-Mar-18 03:52N 48°26' W 123°23'0 0.0
2018-Mar-18 03:29N 48°26' W 123°23'0 0.0
2018-Mar-18 02:58N 48°26' W 123°23'0 0.0
2018-Mar-18 02:29N 48°26' W 123°23'0 0.0
2018-Mar-18 02:00N 48°26' W 123°23'0 0.0
2018-Mar-18 01:29N 48°26' W 123°23'0 0.0
2018-Mar-18 00:54N 48°26' W 123°23'0 0.0
2018-Mar-18 00:24N 48°26' W 123°23'0 0.0
2018-Mar-18 00:00N 48°26' W 123°23'0 0.0
2018-Mar-17 23:28N 48°26' W 123°23'0 0.0
2018-Mar-17 16:44N 48°26' W 123°23'0 0.0
2018-Mar-17 14:04N 48°26' W 123°23'0 0.0
2018-Mar-17 14:00N 48°26' W 123°23'0 0.0
2018-Mar-17 13:30N 48°26' W 123°23'0 0.0
2018-Mar-17 12:56N 48°26' W 123°23'0 0.0
2018-Mar-17 12:28N 48°26' W 123°23'0 0.0
2018-Mar-17 11:53N 48°26' W 123°23'0 0.0
2018-Mar-17 11:29N 48°26' W 123°23'0 0.0
2018-Mar-17 11:00N 48°26' W 123°23'0 0.0
2018-Mar-17 10:28N 48°26' W 123°23'0 0.0
2018-Mar-17 10:00N 48°26' W 123°23'0 0.0
2018-Mar-17 09:30N 48°26' W 123°23'0 0.0
2018-Mar-17 09:00N 48°26' W 123°23'0 0.0
2018-Mar-17 08:28N 48°26' W 123°23'0 0.0
2018-Mar-17 07:58N 48°26' W 123°23'0 0.0
2018-Mar-17 07:28N 48°26' W 123°23'0 0.0
2018-Mar-17 06:54N 48°26' W 123°23'0 0.0
2018-Mar-17 06:27N 48°26' W 123°23'0 0.0
2018-Mar-17 06:00N 48°26' W 123°23'0 0.0
2018-Mar-17 05:29N 48°26' W 123°23'0 0.0
2018-Mar-17 04:59N 48°26' W 123°23'0 0.0
2018-Mar-17 04:30N 48°26' W 123°23'0 0.0
2018-Mar-17 03:59N 48°26' W 123°23'0 0.0
2018-Mar-17 03:28N 48°26' W 123°23'0 0.0
2018-Mar-17 02:55N 48°26' W 123°23'0 0.0
2018-Mar-17 02:28N 48°26' W 123°23'0 0.0
2018-Mar-17 01:58N 48°26' W 123°23'0 0.0
2018-Mar-17 01:29N 48°26' W 123°23'0 0.0
2018-Mar-17 00:59N 48°26' W 123°23'0 0.0
2018-Mar-17 00:29N 48°26' W 123°23'0 0.0
2018-Mar-16 23:58N 48°26' W 123°23'0 0.0
2018-Mar-16 23:29N 48°26' W 123°23'0 0.0
2018-Mar-16 22:55N 48°26' W 123°23'0 0.0
2018-Mar-16 22:29N 48°26' W 123°23'0 0.0
2018-Mar-16 22:00N 48°26' W 123°23'0 0.0
2018-Mar-16 21:29N 48°26' W 123°23'0 0.0
2018-Mar-16 20:58N 48°26' W 123°23'0 0.0
2018-Mar-16 20:30N 48°26' W 123°23'0 0.0
2018-Mar-16 20:00N 48°26' W 123°23'0 0.9
2018-Mar-16 19:30N 48°25' W 123°24'0 0.5
2018-Mar-16 19:00N 48°25' W 123°23'  
Track history (hours):
 
Tides and Currents Weather Stations Pressure Air Temp Water Temp Dewpoint Dewpoint Depression Visibility Wind Speed Wind Dir Waves Ship Positions

Sarah Lissa

Last reported at 2018-Mar-23 21:26 UTC. Time now 2018-Apr-21 07:56 UTC.
Position N 49°06' W 123°47'.
Warning: this ship's position is 28 days out of date.

Length 30 m; draft 2.4 m.

Type: Pleasure craft. MMSI: 538071085.

Date/timePositionNaut miles runAvg speedWind from/ knotsBaromVisibWave heightAir tempDewpointWater temp
2018-Mar-23 21:26N 49°06' W 123°47'3 6.4
2018-Mar-23 20:55N 49°03' W 123°45'3 6.6
2018-Mar-23 20:26N 49°00' W 123°43'4 9.7
2018-Mar-23 20:00N 48°56' W 123°41'5 9.8
2018-Mar-23 19:30N 48°52' W 123°36'5 9.9
2018-Mar-23 19:01N 48°48' W 123°33'4 7.8
2018-Mar-23 18:30N 48°44' W 123°32'5 9.2
2018-Mar-23 18:01N 48°43' W 123°26'4 8.6
2018-Mar-23 17:30N 48°40' W 123°20'5 9.3
2018-Mar-23 17:00N 48°37' W 123°15'510.2
2018-Mar-23 16:30N 48°32' W 123°14'5 9.7
2018-Mar-23 16:00N 48°27' W 123°12'2 3.4
2018-Mar-23 15:30N 48°26' W 123°13'5 9.3
2018-Mar-23 15:00N 48°23' W 123°19'3 5.9
2018-Mar-23 14:30N 48°25' W 123°23'0 0.5
2018-Mar-23 13:52N 48°25' W 123°22'0 0.0
2018-Mar-23 13:30N 48°25' W 123°22'0 0.0
2018-Mar-23 12:57N 48°25' W 123°22'0 0.0
2018-Mar-23 12:24N 48°25' W 123°22'0 0.0
2018-Mar-23 11:49N 48°25' W 123°22'0 0.0
2018-Mar-23 11:28N 48°25' W 123°22'0 0.0
2018-Mar-23 10:59N 48°25' W 123°22'0 0.0
2018-Mar-23 10:24N 48°25' W 123°22'0 0.0
2018-Mar-23 10:00N 48°25' W 123°22'0 0.0
2018-Mar-23 09:28N 48°25' W 123°22'0 0.0
2018-Mar-23 08:56N 48°25' W 123°22'0 0.0
2018-Mar-23 08:29N 48°25' W 123°22'0 0.0
2018-Mar-23 08:00N 48°25' W 123°22'0 0.0
2018-Mar-23 07:29N 48°25' W 123°22'0 0.0
2018-Mar-23 06:59N 48°25' W 123°22'0 0.0
2018-Mar-23 06:29N 48°25' W 123°22'0 0.0
2018-Mar-23 06:00N 48°25' W 123°22'0 0.0
2018-Mar-23 05:25N 48°25' W 123°22'0 0.0
2018-Mar-23 04:56N 48°25' W 123°22'0 0.0
2018-Mar-23 04:29N 48°25' W 123°22'0 0.0
2018-Mar-23 03:58N 48°25' W 123°22'0 0.0
2018-Mar-23 03:29N 48°25' W 123°22'0 0.0
2018-Mar-23 02:59N 48°25' W 123°22'0 0.0
2018-Mar-23 02:25N 48°25' W 123°22'0 0.0
2018-Mar-23 01:58N 48°25' W 123°22'0 0.0
2018-Mar-23 01:29N 48°25' W 123°22'0 0.0
2018-Mar-23 00:54N 48°25' W 123°22'0 0.0
2018-Mar-23 00:14N 48°25' W 123°22'0 0.0
2018-Mar-22 23:52N 48°25' W 123°22'0 0.0
2018-Mar-22 23:30N 48°25' W 123°22'0 0.0
2018-Mar-22 22:58N 48°25' W 123°22'0 0.0
2018-Mar-22 22:28N 48°25' W 123°22'0 0.0
2018-Mar-22 22:00N 48°25' W 123°22'0 0.0
2018-Mar-22 21:28N 48°25' W 123°22'0 0.0
2018-Mar-22 20:58N 48°25' W 123°22'0 0.0
2018-Mar-22 20:29N 48°25' W 123°22'0 0.0
2018-Mar-22 19:59N 48°25' W 123°22'0 0.0
2018-Mar-22 19:28N 48°25' W 123°22'0 0.0
2018-Mar-22 18:59N 48°25' W 123°22'0 0.0
2018-Mar-22 18:29N 48°25' W 123°22'0 0.0
2018-Mar-22 17:58N 48°25' W 123°22'0 0.0
2018-Mar-22 17:21N 48°25' W 123°22'0 0.0
2018-Mar-22 16:54N 48°25' W 123°22'0 0.0
2018-Mar-22 16:24N 48°25' W 123°22'0 0.0
2018-Mar-22 16:00N 48°25' W 123°22'0 0.0
2018-Mar-22 15:30N 48°25' W 123°22'0 0.0
2018-Mar-22 15:00N 48°25' W 123°22'0 0.0
2018-Mar-22 14:26N 48°25' W 123°22'0 0.0
2018-Mar-22 13:50N 48°25' W 123°22'0 0.0
2018-Mar-22 13:28N 48°25' W 123°22'0 0.0
2018-Mar-22 12:57N 48°25' W 123°22'0 0.0
2018-Mar-22 12:27N 48°25' W 123°22'0 0.0
2018-Mar-22 11:59N 48°25' W 123°22'0 0.0
2018-Mar-22 11:29N 48°25' W 123°22'0 0.0
2018-Mar-22 10:59N 48°25' W 123°22'0 0.0
2018-Mar-22 10:29N 48°25' W 123°22'0 0.0
2018-Mar-22 10:00N 48°25' W 123°22'0 0.0
2018-Mar-22 09:28N 48°25' W 123°22'0 0.0
2018-Mar-22 08:59N 48°25' W 123°22'0 0.0
2018-Mar-22 08:28N 48°25' W 123°22'0 0.0
2018-Mar-22 07:58N 48°25' W 123°22'0 0.0
2018-Mar-22 07:30N 48°25' W 123°22'0 0.0
2018-Mar-22 07:00N 48°25' W 123°22'0 0.0
2018-Mar-22 06:27N 48°25' W 123°22'0 0.0
2018-Mar-22 06:00N 48°25' W 123°22'0 0.0
2018-Mar-22 05:29N 48°25' W 123°22'0 0.0
2018-Mar-22 04:59N 48°25' W 123°22'0 0.0
2018-Mar-22 04:27N 48°25' W 123°22'0 0.0
2018-Mar-22 03:59N 48°25' W 123°22'0 0.0
2018-Mar-22 03:28N 48°25' W 123°22'0 0.0
2018-Mar-22 02:58N 48°25' W 123°22'0 0.0
2018-Mar-22 02:28N 48°25' W 123°22'0 0.0
2018-Mar-22 01:58N 48°25' W 123°22'0 0.0
2018-Mar-22 01:30N 48°25' W 123°22'0 0.0
2018-Mar-22 00:56N 48°25' W 123°22'0 0.0
2018-Mar-22 00:30N 48°25' W 123°22'0 0.0
2018-Mar-21 23:58N 48°25' W 123°22'0 0.0
2018-Mar-21 23:23N 48°25' W 123°22'0 0.0
2018-Mar-21 23:00N 48°25' W 123°22'0 0.0
2018-Mar-21 22:27N 48°25' W 123°22'0 0.0
2018-Mar-21 22:00N 48°25' W 123°22'0 0.0
2018-Mar-21 21:29N 48°25' W 123°22'0 0.0
2018-Mar-21 20:52N 48°25' W 123°22'0 0.0
2018-Mar-21 20:30N 48°25' W 123°22'0 0.0
2018-Mar-21 19:58N 48°25' W 123°22'0 0.0
2018-Mar-21 19:27N 48°25' W 123°22'0 0.0
2018-Mar-21 18:57N 48°25' W 123°22'0 0.0
2018-Mar-21 18:30N 48°25' W 123°22'0 0.0
2018-Mar-21 17:58N 48°25' W 123°22'0 0.0
2018-Mar-21 17:30N 48°25' W 123°22'0 0.0
2018-Mar-21 16:59N 48°25' W 123°22'0 0.0
2018-Mar-21 16:29N 48°25' W 123°22'0 0.0
2018-Mar-21 16:00N 48°25' W 123°22'0 0.0
2018-Mar-21 15:28N 48°25' W 123°22'0 0.0
2018-Mar-21 14:59N 48°25' W 123°22'0 0.0
2018-Mar-21 14:23N 48°25' W 123°22'0 0.0
2018-Mar-21 14:00N 48°25' W 123°22'0 0.0
2018-Mar-21 13:28N 48°25' W 123°22'0 0.0
2018-Mar-21 12:58N 48°25' W 123°22'0 0.0
2018-Mar-21 12:29N 48°25' W 123°22'0 0.0
2018-Mar-21 11:59N 48°25' W 123°22'0 0.0
2018-Mar-21 11:26N 48°25' W 123°22'0 0.0
2018-Mar-21 10:58N 48°25' W 123°22'0 0.0
2018-Mar-21 10:26N 48°25' W 123°22'0 0.0
2018-Mar-21 09:58N 48°25' W 123°22'0 0.0
2018-Mar-21 09:29N 48°25' W 123°22'0 0.0
2018-Mar-21 08:53N 48°25' W 123°22'0 0.0
2018-Mar-21 08:24N 48°25' W 123°22'0 0.0
2018-Mar-21 08:00N 48°25' W 123°22'0 0.0
2018-Mar-21 07:28N 48°25' W 123°22'0 0.0
2018-Mar-21 06:58N 48°25' W 123°22'0 0.0
2018-Mar-21 06:23N 48°25' W 123°22'0 0.0
2018-Mar-21 06:00N 48°25' W 123°22'0 0.0
2018-Mar-21 05:30N 48°25' W 123°22'0 0.0
2018-Mar-21 05:00N 48°25' W 123°22'0 0.0
2018-Mar-21 04:30N 48°25' W 123°22'0 0.0
2018-Mar-21 04:00N 48°25' W 123°22'0 0.0
2018-Mar-21 03:30N 48°25' W 123°22'0 0.0
2018-Mar-21 02:58N 48°25' W 123°22'0 0.0
2018-Mar-21 02:30N 48°25' W 123°22'0 0.0
2018-Mar-21 01:58N 48°25' W 123°22'0 0.0
2018-Mar-21 01:25N 48°25' W 123°22'0 0.0
2018-Mar-21 00:59N 48°25' W 123°22'0 0.0
2018-Mar-21 00:30N 48°25' W 123°22'0 0.0
2018-Mar-20 23:59N 48°25' W 123°22'0 0.0
2018-Mar-20 23:27N 48°25' W 123°22'0 0.0
2018-Mar-20 22:56N 48°25' W 123°22'0 0.0
2018-Mar-20 22:26N 48°25' W 123°22'0 0.0
2018-Mar-20 21:58N 48°25' W 123°22'0 0.0
2018-Mar-20 21:28N 48°25' W 123°22'0 0.0
2018-Mar-20 20:55N 48°25' W 123°22'0 0.0
2018-Mar-20 20:30N 48°25' W 123°22'0 0.0
2018-Mar-20 20:00N 48°25' W 123°22'0 0.0
2018-Mar-20 19:28N 48°25' W 123°22'0 0.0
2018-Mar-20 18:58N 48°25' W 123°22'0 0.0
2018-Mar-20 18:30N 48°25' W 123°22'0 0.0
2018-Mar-20 17:59N 48°25' W 123°22'0 0.0
2018-Mar-20 17:30N 48°25' W 123°22'0 0.0
2018-Mar-20 16:53N 48°25' W 123°22'0 0.0
2018-Mar-20 16:28N 48°25' W 123°22'0 0.0
2018-Mar-20 15:58N 48°25' W 123°22'0 0.0
2018-Mar-20 15:29N 48°25' W 123°22'0 0.0
2018-Mar-20 15:00N 48°25' W 123°22'0 0.0
2018-Mar-20 14:30N 48°25' W 123°22'0 0.0
2018-Mar-20 13:58N 48°25' W 123°22'0 0.0
2018-Mar-20 13:30N 48°25' W 123°22'0 0.0
2018-Mar-20 13:00N 48°25' W 123°22'0 0.0
2018-Mar-20 12:30N 48°25' W 123°22'0 0.0
2018-Mar-20 11:59N 48°25' W 123°22'0 0.0
2018-Mar-20 11:30N 48°25' W 123°22'0 0.0
2018-Mar-20 10:59N 48°25' W 123°22'0 0.0
2018-Mar-20 10:24N 48°25' W 123°22'0 0.0
2018-Mar-20 09:58N 48°25' W 123°22'0 0.0
2018-Mar-20 09:29N 48°25' W 123°22'0 0.0
2018-Mar-20 08:54N 48°25' W 123°22'0 0.0
2018-Mar-20 08:30N 48°25' W 123°22'0 0.0
2018-Mar-20 08:00N 48°25' W 123°22'0 0.0
2018-Mar-20 07:26N 48°25' W 123°22'0 0.0
2018-Mar-20 06:58N 48°25' W 123°22'0 0.0
2018-Mar-20 06:29N 48°25' W 123°22'0 0.0
2018-Mar-20 05:59N 48°25' W 123°22'0 0.0
2018-Mar-20 05:30N 48°25' W 123°22'0 0.0
2018-Mar-20 04:58N 48°25' W 123°22'0 0.0
2018-Mar-20 04:28N 48°25' W 123°22'0 0.0
2018-Mar-20 03:58N 48°25' W 123°22'0 0.0
2018-Mar-20 03:30N 48°25' W 123°22'0 0.0
2018-Mar-20 02:55N 48°25' W 123°22'0 0.0
2018-Mar-20 02:30N 48°25' W 123°22'0 0.0
2018-Mar-20 01:58N 48°25' W 123°22'0 0.0
2018-Mar-20 01:28N 48°25' W 123°22'0 0.0
2018-Mar-20 00:57N 48°25' W 123°22'0 0.0
2018-Mar-20 00:30N 48°25' W 123°22'0 0.0
2018-Mar-19 23:58N 48°25' W 123°22'0 0.0
2018-Mar-19 23:28N 48°25' W 123°22'0 0.0
2018-Mar-19 22:58N 48°25' W 123°22'0 1.0
2018-Mar-19 22:30N 48°26' W 123°23'0 0.3
2018-Mar-19 21:56N 48°26' W 123°23'0 0.0
2018-Mar-19 21:11N 48°26' W 123°23'0 0.0
2018-Mar-19 20:55N 48°26' W 123°23'0 0.0
2018-Mar-19 20:29N 48°26' W 123°23'0 0.0
2018-Mar-19 19:58N 48°26' W 123°23'0 0.0
2018-Mar-19 19:28N 48°26' W 123°23'0 0.0
2018-Mar-19 18:54N 48°26' W 123°23'0 0.0
2018-Mar-19 18:29N 48°26' W 123°23'0 0.0
2018-Mar-19 18:00N 48°26' W 123°23'0 0.0
2018-Mar-19 17:30N 48°26' W 123°23'0 0.0
2018-Mar-19 16:58N 48°26' W 123°23'0 0.0
2018-Mar-19 16:30N 48°26' W 123°23'0 0.0
2018-Mar-19 16:00N 48°26' W 123°23'0 0.0
2018-Mar-19 15:30N 48°26' W 123°23'0 0.0
2018-Mar-19 14:55N 48°26' W 123°23'0 0.0
2018-Mar-19 14:28N 48°26' W 123°23'0 0.0
2018-Mar-19 13:59N 48°26' W 123°23'0 0.0
2018-Mar-19 13:27N 48°26' W 123°23'0 0.0
2018-Mar-19 12:52N 48°26' W 123°23'0 0.0
2018-Mar-19 12:29N 48°26' W 123°23'0 0.0
2018-Mar-19 11:58N 48°26' W 123°23'0 0.0
2018-Mar-19 11:29N 48°26' W 123°23'0 0.0
2018-Mar-19 10:56N 48°26' W 123°23'0 0.0
2018-Mar-19 10:30N 48°26' W 123°23'0 0.0
2018-Mar-19 10:00N 48°26' W 123°23'0 0.0
2018-Mar-19 09:29N 48°26' W 123°23'0 0.0
2018-Mar-19 09:00N 48°26' W 123°23'0 0.0
2018-Mar-19 08:28N 48°26' W 123°23'0 0.0
2018-Mar-19 07:59N 48°26' W 123°23'0 0.0
2018-Mar-19 07:26N 48°26' W 123°23'0 0.0
2018-Mar-19 06:56N 48°26' W 123°23'0 0.0
2018-Mar-19 06:29N 48°26' W 123°23'0 0.0
2018-Mar-19 05:57N 48°26' W 123°23'0 0.0
2018-Mar-19 05:27N 48°26' W 123°23'0 0.0
2018-Mar-19 04:57N 48°26' W 123°23'0 0.0
2018-Mar-19 04:23N 48°26' W 123°23'0 0.0
2018-Mar-19 03:59N 48°26' W 123°23'0 0.0
2018-Mar-19 03:30N 48°26' W 123°23'0 0.0
2018-Mar-19 02:59N 48°26' W 123°23'0 0.0
2018-Mar-19 02:27N 48°26' W 123°23'0 0.0
2018-Mar-19 02:00N 48°26' W 123°23'0 0.0
2018-Mar-19 01:28N 48°26' W 123°23'0 0.0
2018-Mar-19 00:54N 48°26' W 123°23'0 0.0
2018-Mar-19 00:30N 48°26' W 123°23'0 0.0
2018-Mar-19 00:00N 48°26' W 123°23'0 0.0
2018-Mar-18 23:26N 48°26' W 123°23'0 0.0
2018-Mar-18 22:56N 48°26' W 123°23'0 0.0
2018-Mar-18 22:29N 48°26' W 123°23'0 0.0
2018-Mar-18 22:00N 48°26' W 123°23'0 0.0
2018-Mar-18 21:29N 48°26' W 123°23'0 0.0
2018-Mar-18 21:00N 48°26' W 123°23'0 0.0
2018-Mar-18 20:27N 48°26' W 123°23'0 0.0
2018-Mar-18 19:59N 48°26' W 123°23'0 0.0
2018-Mar-18 19:28N 48°26' W 123°23'0 0.0
2018-Mar-18 18:58N 48°26' W 123°23'0 0.0
2018-Mar-18 18:30N 48°26' W 123°23'0 0.0
2018-Mar-18 18:00N 48°26' W 123°23'0 0.0
2018-Mar-18 17:30N 48°26' W 123°23'0 0.0
2018-Mar-18 16:59N 48°26' W 123°23'0 0.0
2018-Mar-18 16:30N 48°26' W 123°23'0 0.0
2018-Mar-18 15:58N 48°26' W 123°23'0 0.0
2018-Mar-18 15:28N 48°26' W 123°23'0 0.0
2018-Mar-18 15:00N 48°26' W 123°23'0 0.0
2018-Mar-18 14:29N 48°26' W 123°23'0 0.0
2018-Mar-18 13:58N 48°26' W 123°23'0 0.0
2018-Mar-18 13:30N 48°26' W 123°23'0 0.0
2018-Mar-18 12:58N 48°26' W 123°23'0 0.0
2018-Mar-18 12:24N 48°26' W 123°23'0 0.0
2018-Mar-18 11:59N 48°26' W 123°23'0 0.0
2018-Mar-18 11:29N 48°26' W 123°23'0 0.0
2018-Mar-18 10:55N 48°26' W 123°23'0 0.0
2018-Mar-18 10:28N 48°26' W 123°23'0 0.0
2018-Mar-18 10:00N 48°26' W 123°23'0 0.0
2018-Mar-18 09:30N 48°26' W 123°23'0 0.0
2018-Mar-18 09:00N 48°26' W 123°23'0 0.0
2018-Mar-18 08:30N 48°26' W 123°23'0 0.0
2018-Mar-18 07:59N 48°26' W 123°23'0 0.0
2018-Mar-18 07:26N 48°26' W 123°23'0 0.0
2018-Mar-18 06:53N 48°26' W 123°23'0 0.0
2018-Mar-18 06:29N 48°26' W 123°23'0 0.0
2018-Mar-18 05:52N 48°26' W 123°23'0 0.0
2018-Mar-18 05:29N 48°26' W 123°23'0 0.0
2018-Mar-18 04:59N 48°26' W 123°23'0 0.0
2018-Mar-18 04:24N 48°26' W 123°23'0 0.0
2018-Mar-18 03:52N 48°26' W 123°23'0 0.0
2018-Mar-18 03:29N 48°26' W 123°23'0 0.0
2018-Mar-18 02:58N 48°26' W 123°23'0 0.0
2018-Mar-18 02:29N 48°26' W 123°23'0 0.0
2018-Mar-18 02:00N 48°26' W 123°23'0 0.0
2018-Mar-18 01:29N 48°26' W 123°23'0 0.0
2018-Mar-18 00:54N 48°26' W 123°23'0 0.0
2018-Mar-18 00:24N 48°26' W 123°23'0 0.0
2018-Mar-18 00:00N 48°26' W 123°23'0 0.0
2018-Mar-17 23:28N 48°26' W 123°23'0 0.0
2018-Mar-17 16:44N 48°26' W 123°23'0 0.0
2018-Mar-17 14:04N 48°26' W 123°23'0 0.0
2018-Mar-17 14:00N 48°26' W 123°23'0 0.0
2018-Mar-17 13:30N 48°26' W 123°23'0 0.0
2018-Mar-17 12:56N 48°26' W 123°23'0 0.0
2018-Mar-17 12:28N 48°26' W 123°23'0 0.0
2018-Mar-17 11:53N 48°26' W 123°23'0 0.0
2018-Mar-17 11:29N 48°26' W 123°23'0 0.0
2018-Mar-17 11:00N 48°26' W 123°23'0 0.0
2018-Mar-17 10:28N 48°26' W 123°23'0 0.0
2018-Mar-17 10:00N 48°26' W 123°23'0 0.0
2018-Mar-17 09:30N 48°26' W 123°23'0 0.0
2018-Mar-17 09:00N 48°26' W 123°23'0 0.0
2018-Mar-17 08:28N 48°26' W 123°23'0 0.0
2018-Mar-17 07:58N 48°26' W 123°23'0 0.0
2018-Mar-17 07:28N 48°26' W 123°23'0 0.0
2018-Mar-17 06:54N 48°26' W 123°23'0 0.0
2018-Mar-17 06:27N 48°26' W 123°23'0 0.0
2018-Mar-17 06:00N 48°26' W 123°23'0 0.0
2018-Mar-17 05:29N 48°26' W 123°23'0 0.0
2018-Mar-17 04:59N 48°26' W 123°23'0 0.0
2018-Mar-17 04:30N 48°26' W 123°23'0 0.0
2018-Mar-17 03:59N 48°26' W 123°23'0 0.0
2018-Mar-17 03:28N 48°26' W 123°23'0 0.0
2018-Mar-17 02:55N 48°26' W 123°23'0 0.0
2018-Mar-17 02:28N 48°26' W 123°23'0 0.0
2018-Mar-17 01:58N 48°26' W 123°23'0 0.0
2018-Mar-17 01:29N 48°26' W 123°23'0 0.0
2018-Mar-17 00:59N 48°26' W 123°23'0 0.0
2018-Mar-17 00:29N 48°26' W 123°23'0 0.0
2018-Mar-16 23:58N 48°26' W 123°23'0 0.0
2018-Mar-16 23:29N 48°26' W 123°23'0 0.0
2018-Mar-16 22:55N 48°26' W 123°23'0 0.0
2018-Mar-16 22:29N 48°26' W 123°23'0 0.0
2018-Mar-16 22:00N 48°26' W 123°23'0 0.0
2018-Mar-16 21:29N 48°26' W 123°23'0 0.0
2018-Mar-16 20:58N 48°26' W 123°23'0 0.0
2018-Mar-16 20:30N 48°26' W 123°23'0 0.0
2018-Mar-16 20:00N 48°26' W 123°23'0 0.9
2018-Mar-16 19:30N 48°25' W 123°24'0 0.5
2018-Mar-16 19:00N 48°25' W 123°23'  

Dump ship's entire track history